METAR Data
IDs: Format: Raw Decoded Include TAF

Data at: 1300 UTC 07 Oct 2022

EBFN 070825Z 20007KT 9999 BKN050 13/09 Q1023 BLU BLU